Time;durP1;ratioP1;P1;durP2;ratioP2;P2;SDS_P1;SDS_P2;PMS_P1;PMS_P2;Temp;Humidity;BMP_temperature;BMP_pressure;BME280_temperature;BME280_humidity;BME280_pressure;Samples;Min_cycle;Max_cycle;Signal;HPM_P1;HPM_P2
2023/12/23 00:02:10;;;;;;;14.50;2.17;;;4.30;99.90;;;;;;4946504;29;20071;-86
2023/12/23 00:04:37;;;;;;;14.20;2.33;;;4.30;99.90;;;;;;4963104;29;20114;-86
2023/12/23 00:07:03;;;;;;;17.70;2.72;;;4.30;99.90;;;;;;4945031;29;20087;-86
2023/12/23 00:09:30;;;;;;;15.95;2.13;;;4.40;99.90;;;;;;4965370;29;20136;-85
2023/12/23 00:11:57;;;;;;;14.88;2.22;;;5.00;99.90;;;;;;4953140;29;20055;-86
2023/12/23 00:14:23;;;;;;;9.95;1.60;;;5.00;99.90;;;;;;4970687;29;20416;-86
2023/12/23 00:16:50;;;;;;;19.55;2.75;;;4.50;99.90;;;;;;4955879;29;20043;-86
2023/12/23 00:19:16;;;;;;;17.05;2.30;;;4.50;99.90;;;;;;4971506;29;20044;-86
2023/12/23 00:21:43;;;;;;;14.25;2.08;;;4.90;99.90;;;;;;4972187;29;20047;-86
2023/12/23 00:24:10;;;;;;;12.85;2.25;;;4.40;99.90;;;;;;4971663;29;20058;-86
2023/12/23 00:26:36;;;;;;;23.80;2.60;;;4.40;99.90;;;;;;4955572;29;20493;-85
2023/12/23 00:29:03;;;;;;;14.10;2.75;;;4.30;99.90;;;;;;4955748;29;20031;-85
2023/12/23 00:31:29;;;;;;;16.45;2.40;;;4.20;99.90;;;;;;4971650;29;20043;-86
2023/12/23 00:33:56;;;;;;;15.52;2.28;;;4.20;99.90;;;;;;4971406;29;20099;-86
2023/12/23 00:36:23;;;;;;;13.02;1.90;;;4.50;99.90;;;;;;4971391;29;20047;-86
2023/12/23 00:38:49;;;;;;;14.30;2.00;;;4.10;99.90;;;;;;4970575;29;20043;-86
2023/12/23 00:41:16;;;;;;;33.30;2.72;;;4.10;99.90;;;;;;4971351;29;20445;-86
2023/12/23 00:43:42;;;;;;;22.35;2.60;;;5.20;99.90;;;;;;4951873;29;20061;-86
2023/12/23 00:46:09;;;;;;;18.52;2.83;;;4.20;99.90;;;;;;4962714;29;20044;-86
2023/12/23 00:48:37;;;;;;;14.40;2.03;;;4.10;99.90;;;;;;4952094;29;20111;-86
2023/12/23 00:51:04;;;;;;;15.35;1.90;;;4.20;99.90;;;;;;4955012;29;20071;-86
2023/12/23 00:53:31;;;;;;;26.00;2.42;;;4.20;99.90;;;;;;4947016;29;20516;-86
2023/12/23 00:55:58;;;;;;;22.00;2.47;;;4.30;99.90;;;;;;4971055;29;20036;-87
2023/12/23 00:58:24;;;;;;;16.15;2.67;;;5.00;99.90;;;;;;4955413;29;20043;-87
2023/12/23 01:00:51;;;;;;;12.93;2.28;;;4.30;99.90;;;;;;4955140;29;20032;-86
2023/12/23 01:03:18;;;;;;;14.73;2.00;;;4.30;99.90;;;;;;4967801;29;20110;-86
2023/12/23 01:05:44;;;;;;;12.63;2.25;;;5.10;99.90;;;;;;4970656;29;20040;-86
2023/12/23 01:08:11;;;;;;;16.27;2.35;;;4.70;99.90;;;;;;4954695;29;20044;-86
2023/12/23 01:10:37;;;;;;;12.32;2.13;;;4.40;99.90;;;;;;4971201;29;20043;-86
2023/12/23 01:13:04;;;;;;;17.48;2.10;;;4.20;99.90;;;;;;4954791;29;20495;-86
2023/12/23 01:15:31;;;;;;;18.40;2.63;;;4.30;99.90;;;;;;4970869;29;20058;-86
2023/12/23 01:17:57;;;;;;;18.00;3.00;;;4.20;99.90;;;;;;4952470;29;20130;-86
2023/12/23 01:20:25;;;;;;;11.52;1.85;;;4.20;99.90;;;;;;4954782;29;20044;-86
2023/12/23 01:22:51;;;;;;;16.50;2.25;;;4.40;99.90;;;;;;4970415;29;20062;-86
2023/12/23 01:25:18;;;;;;;12.65;2.20;;;4.20;99.90;;;;;;4970360;29;20039;-86
2023/12/23 01:27:44;;;;;;;14.25;2.00;;;4.80;99.90;;;;;;4954637;29;20914;-86
2023/12/23 01:30:11;;;;;;;11.77;2.05;;;4.20;99.90;;;;;;4952606;29;20043;-86
2023/12/23 01:32:38;;;;;;;19.65;2.35;;;4.10;99.90;;;;;;4948382;29;20106;-86
2023/12/23 01:35:06;;;;;;;9.80;1.80;;;4.30;99.90;;;;;;4946932;29;20043;-86
2023/12/23 01:37:32;;;;;;;14.40;2.22;;;4.20;99.90;;;;;;4954297;29;20039;-86
2023/12/23 01:39:59;;;;;;;15.38;2.05;;;4.20;99.90;;;;;;4957831;29;20419;-86
2023/12/23 01:42:26;;;;;;;20.42;2.50;;;4.20;99.90;;;;;;4938129;29;20040;-86
2023/12/23 01:44:53;;;;;;;13.40;2.00;;;4.30;99.90;;;;;;4954209;29;20067;-86
2023/12/23 01:47:20;;;;;;;17.08;2.10;;;5.00;99.90;;;;;;4954255;29;20044;-86
2023/12/23 01:49:47;;;;;;;9.80;1.83;;;4.40;99.90;;;;;;4953941;29;20504;-86
2023/12/23 01:52:14;;;;;;;14.18;2.20;;;5.00;99.90;;;;;;4954150;29;20457;-85
2023/12/23 01:54:40;;;;;;;10.60;1.92;;;4.50;99.90;;;;;;4954023;29;20047;-86
2023/12/23 01:57:07;;;;;;;13.43;1.77;;;5.30;99.90;;;;;;4954053;29;20130;-86
2023/12/23 01:59:34;;;;;;;17.33;1.92;;;5.60;99.90;;;;;;4953606;29;20097;-86
2023/12/23 02:02:02;;;;;;;18.23;1.95;;;5.30;99.90;;;;;;4953438;29;20135;-86
2023/12/23 02:04:29;;;;;;;14.50;1.73;;;4.80;99.90;;;;;;4941060;29;20037;-86
2023/12/23 02:06:55;;;;;;;15.13;2.35;;;5.30;99.90;;;;;;4947680;29;20103;-85
2023/12/23 02:09:22;;;;;;;18.88;2.50;;;4.70;99.90;;;;;;4953339;29;20115;-86
2023/12/23 02:12:13;;;;;;;14.55;2.40;;;5.40;99.90;;;;;;4954024;29;20044;-86
2023/12/23 02:15:02;;;;;;;10.60;1.58;;;4.70;99.90;;;;;;4941144;29;20055;-86
2023/12/23 02:17:29;;;;;;;13.90;1.75;;;4.70;99.90;;;;;;4951804;29;20043;-86
2023/12/23 02:19:56;;;;;;;16.13;1.95;;;4.70;99.90;;;;;;4953323;29;20135;-85
2023/12/23 02:22:22;;;;;;;14.98;2.22;;;5.00;99.90;;;;;;4953416;29;20476;-85
2023/12/23 02:24:49;;;;;;;19.38;2.28;;;5.60;99.90;;;;;;4948055;29;20050;-86
2023/12/23 02:27:20;;;;;;;23.30;2.08;;;5.60;99.90;;;;;;4958729;29;20043;-86
2023/12/23 02:29:48;;;;;;;13.68;2.13;;;4.80;99.90;;;;;;4945824;29;20074;-86
2023/12/23 02:32:17;;;;;;;10.90;1.60;;;4.90;99.90;;;;;;4964286;29;20039;-85
2023/12/23 02:34:43;;;;;;;11.25;1.70;;;5.20;99.90;;;;;;4968912;29;20095;-85
2023/12/23 02:37:10;;;;;;;11.40;1.48;;;4.90;99.90;;;;;;4965538;29;20047;-86
2023/12/23 02:39:37;;;;;;;15.82;2.35;;;4.90;99.90;;;;;;4968845;29;20485;-87
2023/12/23 02:42:04;;;;;;;12.73;1.50;;;4.90;99.90;;;;;;4953189;29;20040;-86
2023/12/23 02:44:31;;;;;;;7.65;1.65;;;4.90;99.90;;;;;;4953706;29;20126;-86
2023/12/23 02:46:57;;;;;;;13.02;1.38;;;5.50;99.90;;;;;;4965431;29;20096;-86
2023/12/23 02:49:24;;;;;;;11.82;1.63;;;5.60;99.90;;;;;;4934473;29;20044;-85
2023/12/23 02:51:50;;;;;;;13.00;1.30;;;5.00;99.90;;;;;;4968514;29;20048;-86
2023/12/23 02:54:17;;;;;;;9.23;1.33;;;5.00;99.90;;;;;;4952791;29;20155;-85
2023/12/23 02:56:44;;;;;;;7.50;1.65;;;5.10;99.90;;;;;;4948089;29;20516;-85
2023/12/23 02:59:10;;;;;;;9.88;1.52;;;5.50;99.90;;;;;;4945562;29;20354;-86
2023/12/23 03:01:37;;;;;;;8.40;1.20;;;5.00;99.90;;;;;;4952863;29;20087;-86
2023/12/23 03:04:04;;;;;;;10.27;1.33;;;5.90;99.90;;;;;;4953015;29;20485;-86
2023/12/23 03:06:30;;;;;;;8.88;1.45;;;5.40;99.90;;;;;;4952898;29;20089;-86
2023/12/23 03:08:57;;;;;;;9.15;1.85;;;5.10;99.90;;;;;;4937297;29;20135;-86
2023/12/23 03:11:24;;;;;;;14.85;1.80;;;5.10;99.90;;;;;;4929644;29;20127;-86
2023/12/23 03:13:52;;;;;;;8.50;1.42;;;5.10;99.90;;;;;;4937022;29;20408;-85
2023/12/23 03:16:19;;;;;;;14.20;1.50;;;5.10;99.90;;;;;;4955901;29;20098;-85
2023/12/23 03:18:46;;;;;;;12.07;1.25;;;5.00;99.90;;;;;;4937099;29;20075;-86
2023/12/23 03:21:12;;;;;;;13.05;1.52;;;5.00;99.90;;;;;;4933156;29;20503;-86
2023/12/23 03:23:39;;;;;;;16.98;1.58;;;5.10;99.90;;;;;;4944245;29;20075;-86
2023/12/23 03:26:09;;;;;;;11.75;1.60;;;5.00;99.90;;;;;;4937166;29;20499;-86
2023/12/23 03:28:35;;;;;;;9.55;1.40;;;5.00;99.90;;;;;;4926902;29;20463;-86
2023/12/23 03:31:02;;;;;;;10.35;1.90;;;5.00;99.90;;;;;;4936365;29;20062;-86
2023/12/23 03:33:28;;;;;;;10.18;2.17;;;5.00;99.90;;;;;;4944402;29;20043;-86
2023/12/23 03:35:58;;;;;;;11.27;1.55;;;5.00;99.90;;;;;;4924569;29;20127;-86
2023/12/23 03:38:26;;;;;;;15.18;2.05;;;5.00;99.90;;;;;;4940255;29;20047;-86
2023/12/23 03:40:53;;;;;;;9.40;1.70;;;5.00;99.90;;;;;;4933914;29;20044;-85
2023/12/23 03:43:19;;;;;;;15.27;2.10;;;5.00;99.90;;;;;;4930549;29;20147;-85
2023/12/23 03:45:46;;;;;;;13.70;1.55;;;4.90;99.90;;;;;;4921871;29;20040;-86
2023/12/23 03:48:12;;;;;;;9.00;1.30;;;4.90;99.90;;;;;;4933085;29;20046;-86
2023/12/23 03:50:39;;;;;;;7.22;1.20;;;4.90;99.90;;;;;;4941991;29;20405;-85
2023/12/23 03:53:05;;;;;;;13.50;1.30;;;4.90;99.90;;;;;;4953836;29;20040;-86
2023/12/23 03:55:32;;;;;;;11.05;1.40;;;4.90;99.90;;;;;;4952644;29;20048;-85
2023/12/23 03:57:59;;;;;;;7.25;1.45;;;5.50;99.90;;;;;;4933727;29;20046;-86
2023/12/23 04:00:26;;;;;;;13.00;1.20;;;5.10;99.90;;;;;;4936732;29;20184;-85
2023/12/23 04:02:53;;;;;;;9.77;1.05;;;5.70;99.90;;;;;;4936771;29;20048;-86
2023/12/23 04:05:21;;;;;;;9.88;1.23;;;4.80;99.90;;;;;;4936784;29;20035;-86
2023/12/23 04:07:48;;;;;;;9.65;1.50;;;4.90;99.90;;;;;;4944956;29;20082;-86
2023/12/23 04:10:16;;;;;;;11.65;1.60;;;4.80;99.90;;;;;;4952476;29;20071;-86
2023/12/23 04:12:43;;;;;;;14.63;2.58;;;4.80;99.90;;;;;;4952501;29;20082;-86
2023/12/23 04:15:10;;;;;;;8.32;1.65;;;4.80;99.90;;;;;;4952424;29;20536;-85
2023/12/23 04:17:39;;;;;;;8.35;1.40;;;4.80;99.90;;;;;;4957480;29;20118;-85
2023/12/23 04:20:09;;;;;;;10.70;1.52;;;4.80;99.90;;;;;;4952175;29;20052;-86
2023/12/23 04:22:35;;;;;;;9.32;1.10;;;4.80;99.90;;;;;;4952200;29;20154;-85
2023/12/23 04:25:03;;;;;;;12.30;1.98;;;4.80;99.90;;;;;;4970649;29;20118;-86
2023/12/23 04:27:29;;;;;;;10.20;1.48;;;4.80;99.90;;;;;;4947901;29;20047;-86
2023/12/23 04:29:56;;;;;;;12.48;1.20;;;4.80;99.90;;;;;;4946643;29;20442;-85
2023/12/23 04:32:23;;;;;;;7.57;1.40;;;4.80;99.90;;;;;;4939835;29;20039;-85
2023/12/23 04:34:49;;;;;;;8.60;1.25;;;4.80;99.90;;;;;;4955551;29;20461;-86
2023/12/23 04:37:16;;;;;;;8.75;1.15;;;4.80;99.90;;;;;;4984159;29;20047;-85
2023/12/23 04:39:43;;;;;;;14.15;1.30;;;4.80;99.90;;;;;;4955735;29;20083;-85
2023/12/23 04:42:10;;;;;;;6.82;0.90;;;5.00;99.90;;;;;;4966734;29;20476;-85
2023/12/23 04:44:37;;;;;;;5.10;1.02;;;4.70;99.90;;;;;;4967976;29;20118;-85
2023/12/23 04:47:04;;;;;;;3.80;0.60;;;4.70;99.90;;;;;;4952207;29;20051;-85
2023/12/23 04:49:30;;;;;;;9.02;1.15;;;4.70;99.90;;;;;;4947344;29;20625;-86
2023/12/23 04:51:57;;;;;;;10.23;1.23;;;4.70;99.90;;;;;;4964742;29;20054;-85
2023/12/23 04:54:23;;;;;;;5.65;1.20;;;4.70;99.90;;;;;;4954300;29;20046;-86
2023/12/23 04:56:50;;;;;;;6.90;0.70;;;5.40;99.90;;;;;;4955279;29;20070;-85
2023/12/23 04:59:17;;;;;;;6.82;1.10;;;4.60;99.90;;;;;;4970882;29;20079;-84
2023/12/23 05:01:43;;;;;;;5.30;0.60;;;4.60;99.90;;;;;;4958624;29;20073;-85
2023/12/23 05:04:10;;;;;;;4.15;0.75;;;4.60;99.90;;;;;;4954511;29;20040;-85
2023/12/23 05:06:37;;;;;;;4.47;0.85;;;4.60;99.90;;;;;;4951535;29;20040;-85
2023/12/23 05:09:05;;;;;;;6.40;0.68;;;4.60;99.90;;;;;;4948849;29;20047;-85
2023/12/23 05:11:32;;;;;;;4.28;0.60;;;4.50;99.90;;;;;;4935884;29;20047;-85
2023/12/23 05:13:58;;;;;;;6.13;0.70;;;4.50;99.90;;;;;;4926711;29;20044;-85
2023/12/23 05:16:25;;;;;;;5.85;0.70;;;4.50;99.90;;;;;;4931206;29;20035;-85
2023/12/23 05:18:52;;;;;;;7.85;0.80;;;5.40;99.90;;;;;;4934397;29;20046;-85
2023/12/23 05:21:18;;;;;;;4.50;0.77;;;4.50;99.90;;;;;;4946344;29;20051;-85
2023/12/23 05:23:45;;;;;;;4.75;0.80;;;4.50;99.90;;;;;;4927885;29;20094;-85
2023/12/23 05:26:11;;;;;;;3.38;0.63;;;4.50;99.90;;;;;;4947684;29;20039;-86
2023/12/23 05:28:38;;;;;;;9.90;0.93;;;4.60;99.90;;;;;;4946653;29;20044;-85
2023/12/23 05:31:05;;;;;;;6.45;0.90;;;4.60;99.90;;;;;;4954300;29;20039;-85
2023/12/23 05:33:32;;;;;;;4.82;0.70;;;4.50;99.90;;;;;;4939806;29;20043;-85
2023/12/23 05:35:58;;;;;;;3.28;0.77;;;4.80;99.90;;;;;;4946924;29;20047;-86
2023/12/23 05:38:25;;;;;;;4.32;0.50;;;4.50;99.90;;;;;;4931817;29;20040;-86
2023/12/23 05:40:52;;;;;;;3.03;0.60;;;4.50;99.90;;;;;;4956592;29;20135;-86
2023/12/23 05:43:18;;;;;;;4.00;0.73;;;5.40;99.90;;;;;;4961419;29;20068;-86
2023/12/23 05:45:45;;;;;;;1.77;0.68;;;4.50;99.90;;;;;;4959315;29;20130;-85
2023/12/23 05:48:11;;;;;;;4.07;0.73;;;4.50;99.90;;;;;;4928431;29;20068;-85
2023/12/23 05:50:38;;;;;;;5.93;0.95;;;4.50;99.90;;;;;;4936112;29;20103;-85
2023/12/23 05:53:05;;;;;;;2.83;0.63;;;4.50;99.90;;;;;;4938342;29;20539;-86
2023/12/23 05:55:35;;;;;;;3.35;0.50;;;4.40;99.90;;;;;;4932721;29;20044;-88
2023/12/23 05:58:02;;;;;;;2.70;0.57;;;4.40;99.90;;;;;;4938693;29;20047;-86
2023/12/23 06:00:28;;;;;;;4.22;0.60;;;4.50;99.90;;;;;;4938362;29;20047;-85
2023/12/23 06:02:55;;;;;;;5.53;0.70;;;4.50;99.90;;;;;;4946515;29;20039;-86
2023/12/23 06:05:22;;;;;;;3.22;0.43;;;4.40;99.90;;;;;;4926292;29;20381;-87
2023/12/23 06:07:49;;;;;;;4.18;0.52;;;4.60;99.90;;;;;;4946669;29;20060;-86
2023/12/23 06:10:15;;;;;;;2.72;0.60;;;5.00;99.90;;;;;;4954154;29;20035;-86
2023/12/23 06:12:42;;;;;;;2.97;0.68;;;4.40;99.90;;;;;;4954050;29;20048;-86
2023/12/23 06:15:09;;;;;;;3.03;0.73;;;4.40;99.90;;;;;;4954307;29;20048;-85
2023/12/23 06:17:36;;;;;;;2.38;0.60;;;4.40;99.90;;;;;;4949163;29;20536;-86
2023/12/23 06:20:04;;;;;;;3.67;0.90;;;5.30;99.90;;;;;;4953990;29;20044;-85
2023/12/23 06:22:31;;;;;;;4.75;0.63;;;4.40;99.90;;;;;;4954623;29;20218;-85
2023/12/23 06:24:57;;;;;;;5.25;1.02;;;4.40;99.90;;;;;;4981306;29;20045;-85
2023/12/23 06:27:24;;;;;;;3.90;0.60;;;4.40;99.90;;;;;;4941142;29;20400;-86
2023/12/23 06:29:51;;;;;;;5.45;0.80;;;4.50;99.90;;;;;;4945700;29;20048;-86
2023/12/23 06:32:17;;;;;;;3.50;0.77;;;5.30;99.90;;;;;;4945374;29;20047;-86
2023/12/23 06:34:44;;;;;;;3.35;0.60;;;4.40;99.90;;;;;;4945033;29;20044;-86
2023/12/23 06:37:10;;;;;;;3.72;0.65;;;5.00;99.90;;;;;;4946722;29;20044;-86
2023/12/23 06:39:37;;;;;;;4.00;0.90;;;4.40;99.90;;;;;;4953259;29;20044;-86
2023/12/23 06:42:04;;;;;;;3.65;0.70;;;4.90;99.90;;;;;;4953940;29;20063;-87
2023/12/23 06:44:32;;;;;;;3.88;0.60;;;4.40;99.90;;;;;;4956336;29;20048;-86
2023/12/23 06:46:59;;;;;;;2.33;0.70;;;5.20;99.90;;;;;;4952613;29;20040;-86
2023/12/23 06:49:27;;;;;;;2.42;0.50;;;4.60;99.90;;;;;;4942813;29;20417;-86
2023/12/23 06:51:54;;;;;;;2.63;0.55;;;4.40;99.90;;;;;;4943612;29;20413;-86
2023/12/23 06:54:21;;;;;;;5.30;0.63;;;5.40;99.90;;;;;;4938790;29;20055;-86
2023/12/23 06:56:47;;;;;;;3.95;0.50;;;4.40;99.90;;;;;;4936423;29;20044;-86
2023/12/23 06:59:15;;;;;;;1.73;0.50;;;4.40;99.90;;;;;;4938194;29;20043;-86
2023/12/23 07:01:42;;;;;;;4.32;0.68;;;4.40;99.90;;;;;;4944784;29;20067;-86
2023/12/23 07:04:08;;;;;;;6.10;0.70;;;4.40;99.90;;;;;;4949440;29;20091;-86
2023/12/23 07:06:36;;;;;;;4.90;0.70;;;4.40;99.90;;;;;;4938384;29;20040;-85
2023/12/23 07:09:03;;;;;;;2.78;0.90;;;4.40;99.90;;;;;;4929496;29;20124;-86
2023/12/23 07:11:29;;;;;;;3.58;0.47;;;4.40;99.90;;;;;;4932853;29;20119;-86
2023/12/23 07:13:56;;;;;;;2.30;0.50;;;4.40;99.90;;;;;;4944265;29;20075;-86
2023/12/23 07:16:22;;;;;;;0.75;0.30;;;4.40;99.90;;;;;;4928514;29;20035;-86
2023/12/23 07:18:49;;;;;;;1.27;0.50;;;5.10;99.90;;;;;;4942260;29;20111;-86
2023/12/23 07:21:16;;;;;;;2.42;0.50;;;4.30;99.90;;;;;;4935429;29;20504;-85
2023/12/23 07:23:44;;;;;;;5.28;0.60;;;4.30;99.90;;;;;;4923151;29;20087;-85
2023/12/23 07:26:13;;;;;;;4.00;0.80;;;4.30;99.90;;;;;;4922918;29;20047;-85
2023/12/23 07:28:40;;;;;;;0.93;0.30;;;4.30;99.90;;;;;;4936504;29;20039;-84
2023/12/23 07:31:06;;;;;;;3.97;0.73;;;4.30;99.90;;;;;;4935594;29;20047;-85
2023/12/23 07:33:33;;;;;;;2.90;0.63;;;4.30;99.90;;;;;;4952857;29;20777;-85
2023/12/23 07:36:00;;;;;;;3.88;0.60;;;4.30;99.90;;;;;;4937213;29;20032;-84
2023/12/23 07:38:27;;;;;;;2.85;0.40;;;4.30;99.90;;;;;;4941204;29;20182;-83
2023/12/23 07:40:54;;;;;;;1.73;0.50;;;5.20;99.90;;;;;;4923290;29;20035;-82
2023/12/23 07:43:20;;;;;;;4.78;0.93;;;4.40;99.90;;;;;;4933075;29;20047;-83
2023/12/23 07:45:47;;;;;;;1.88;0.32;;;4.40;99.90;;;;;;4941205;29;20047;-82
2023/12/23 07:48:14;;;;;;;3.95;0.73;;;4.40;99.90;;;;;;4936447;29;20070;-83
2023/12/23 07:50:40;;;;;;;2.90;0.60;;;5.00;99.90;;;;;;4943199;29;20084;-83
2023/12/23 07:53:07;;;;;;;2.83;0.70;;;4.70;99.90;;;;;;4935884;29;20408;-82
2023/12/23 07:55:34;;;;;;;3.03;0.75;;;4.40;99.90;;;;;;4935737;29;20044;-83
2023/12/23 07:58:00;;;;;;;3.15;0.60;;;4.50;99.90;;;;;;4944352;29;20079;-83
2023/12/23 08:00:27;;;;;;;3.40;0.80;;;4.40;99.90;;;;;;4940346;29;20114;-83
2023/12/23 08:02:54;;;;;;;2.38;0.60;;;4.40;99.90;;;;;;4930733;29;20473;-83
2023/12/23 08:05:20;;;;;;;2.75;0.70;;;4.40;99.90;;;;;;4942248;29;20044;-83
2023/12/23 08:07:47;;;;;;;2.92;0.55;;;4.40;99.90;;;;;;4937289;29;20052;-83
2023/12/23 08:10:14;;;;;;;2.63;0.68;;;5.50;99.90;;;;;;4935471;29;20039;-83
2023/12/23 08:12:40;;;;;;;2.70;0.70;;;4.40;99.90;;;;;;4933726;29;20047;-83
2023/12/23 08:15:07;;;;;;;2.35;0.63;;;5.10;99.90;;;;;;4934564;29;20381;-83
2023/12/23 08:17:34;;;;;;;1.98;0.60;;;4.40;99.90;;;;;;4939425;29;20044;-83
2023/12/23 08:20:00;;;;;;;4.28;0.90;;;4.40;99.90;;;;;;4947073;29;20087;-83
2023/12/23 08:22:27;;;;;;;2.28;0.70;;;4.40;99.90;;;;;;4955613;29;20103;-83
2023/12/23 08:24:54;;;;;;;2.78;0.77;;;4.50;99.90;;;;;;4955667;29;20048;-83
2023/12/23 08:27:20;;;;;;;3.67;0.82;;;4.50;99.90;;;;;;4927577;29;20063;-83
2023/12/23 08:29:47;;;;;;;3.35;0.90;;;4.50;99.90;;;;;;4948834;29;20044;-83
2023/12/23 08:32:14;;;;;;;4.97;1.45;;;4.50;99.90;;;;;;4951187;29;20044;-83
2023/12/23 08:34:40;;;;;;;2.25;1.20;;;4.50;99.90;;;;;;4931291;29;22583;-83
2023/12/23 08:37:07;;;;;;;4.15;1.55;;;5.20;99.90;;;;;;4950765;29;20047;-83
2023/12/23 08:39:33;;;;;;;5.03;1.45;;;4.50;99.90;;;;;;4945879;29;20537;-83
2023/12/23 08:42:00;;;;;;;5.30;1.58;;;4.50;99.90;;;;;;4934246;29;20044;-83
2023/12/23 08:44:27;;;;;;;4.95;1.50;;;5.00;99.90;;;;;;4936384;29;20072;-82
2023/12/23 08:46:53;;;;;;;3.65;1.50;;;4.50;99.90;;;;;;4956390;29;20044;-83
2023/12/23 08:49:20;;;;;;;3.45;1.27;;;4.50;99.90;;;;;;4953650;29;20493;-83
2023/12/23 08:51:46;;;;;;;5.95;1.50;;;4.50;99.90;;;;;;4940771;29;20047;-83
2023/12/23 08:54:13;;;;;;;4.00;1.40;;;4.50;99.90;;;;;;4946942;29;20040;-83
2023/12/23 08:56:40;;;;;;;7.00;1.50;;;4.50;99.90;;;;;;4945782;29;20071;-83
2023/12/23 08:59:06;;;;;;;4.03;1.30;;;4.80;99.90;;;;;;4941516;29;20135;-84
2023/12/23 09:01:33;;;;;;;3.78;1.23;;;4.50;99.90;;;;;;4935412;29;20040;-83
2023/12/23 09:04:00;;;;;;;3.22;1.60;;;5.20;99.90;;;;;;4947539;29;20036;-83
2023/12/23 09:06:26;;;;;;;4.63;1.50;;;4.60;99.90;;;;;;4922030;29;20037;-84
2023/12/23 09:08:57;;;;;;;4.28;1.30;;;5.30;99.90;;;;;;4960443;29;20118;-83
2023/12/23 09:11:24;;;;;;;2.65;1.20;;;5.50;99.90;;;;;;4926894;29;20123;-83
2023/12/23 09:13:50;;;;;;;5.97;1.20;;;4.60;99.90;;;;;;4946779;29;20039;-83
2023/12/23 09:16:17;;;;;;;3.00;1.40;;;4.90;99.90;;;;;;4934451;29;20050;-83
2023/12/23 09:18:43;;;;;;;3.80;1.55;;;4.60;99.90;;;;;;4947816;29;20058;-84
2023/12/23 09:21:10;;;;;;;3.22;1.40;;;4.60;99.90;;;;;;4940808;29;20493;-84
2023/12/23 09:23:37;;;;;;;4.80;1.30;;;4.60;99.90;;;;;;4953999;29;20044;-82
2023/12/23 09:26:04;;;;;;;3.70;1.00;;;5.50;99.90;;;;;;4938563;29;20462;-83
2023/12/23 09:28:30;;;;;;;4.13;1.30;;;4.60;99.90;;;;;;4928730;29;20028;-82
2023/12/23 09:30:57;;;;;;;4.13;1.50;;;5.10;99.90;;;;;;4939217;29;20039;-82
2023/12/23 09:33:24;;;;;;;4.95;1.40;;;4.70;99.90;;;;;;4942711;29;20035;-83
2023/12/23 09:35:50;;;;;;;4.53;1.05;;;4.70;99.90;;;;;;4939147;29;20055;-83
2023/12/23 09:38:17;;;;;;;5.63;1.50;;;4.70;99.90;;;;;;4925197;29;20040;-83
2023/12/23 09:40:44;;;;;;;2.30;1.20;;;5.30;99.90;;;;;;4931267;29;20044;-83
2023/12/23 09:43:12;;;;;;;3.60;1.10;;;4.70;99.90;;;;;;4935324;29;20051;-83
2023/12/23 09:45:41;;;;;;;3.05;0.93;;;4.70;99.90;;;;;;4941911;29;20040;-83
2023/12/23 09:48:08;;;;;;;2.88;1.00;;;5.10;99.90;;;;;;4959023;29;20035;-83
2023/12/23 09:50:34;;;;;;;2.45;0.93;;;4.70;99.90;;;;;;4940024;29;20381;-83
2023/12/23 09:53:03;;;;;;;6.20;1.52;;;4.70;99.90;;;;;;4939115;29;20040;-85
2023/12/23 09:55:31;;;;;;;2.63;1.02;;;4.70;99.90;;;;;;4938137;29;20044;-88
2023/12/23 09:57:58;;;;;;;2.60;0.90;;;5.10;99.90;;;;;;4951170;29;20031;-87
2023/12/23 10:00:25;;;;;;;2.63;1.27;;;4.80;99.90;;;;;;4963698;29;20102;-88
2023/12/23 10:02:52;;;;;;;2.95;1.13;;;5.90;99.90;;;;;;4941453;29;20080;-88
2023/12/23 10:05:18;;;;;;;3.83;1.73;;;5.00;99.90;;;;;;4922414;29;20040;-88
2023/12/23 10:07:45;;;;;;;3.55;1.77;;;5.50;99.90;;;;;;4942898;29;20106;-88
2023/12/23 10:10:12;;;;;;;5.75;1.73;;;4.90;99.90;;;;;;4970686;29;20420;-88
2023/12/23 10:12:38;;;;;;;6.32;1.70;;;5.90;99.90;;;;;;4954072;29;20050;-87
2023/12/23 10:15:05;;;;;;;9.00;1.83;;;4.90;99.90;;;;;;4944142;29;20040;-87
2023/12/23 10:17:32;;;;;;;6.57;1.90;;;4.90;99.90;;;;;;4969055;29;20047;-87
2023/12/23 10:19:59;;;;;;;3.33;1.52;;;5.50;99.90;;;;;;4948601;29;20040;-88
2023/12/23 10:22:29;;;;;;;6.50;1.90;;;4.90;99.90;;;;;;4963604;29;20126;-88
2023/12/23 10:24:56;;;;;;;2.90;1.10;;;4.90;99.90;;;;;;4947536;29;20066;-88
2023/12/23 10:27:25;;;;;;;4.30;1.00;;;5.00;99.90;;;;;;4966833;29;20504;-89
2023/12/23 10:29:55;;;;;;;3.80;1.23;;;5.40;99.90;;;;;;4955593;29;20036;-89
2023/12/23 10:32:24;;;;;;;3.30;1.30;;;5.30;99.90;;;;;;4954425;29;20058;-89
2023/12/23 10:34:58;;;;;;;11.35;1.52;;;5.90;99.90;;;;;;4954914;29;20504;-88
2023/12/23 10:37:25;;;;;;;3.83;1.40;;;5.00;99.90;;;;;;4947455;29;20079;-87
2023/12/23 10:40:09;;;;;;;2.40;1.30;;;5.00;99.90;;;;;;4954657;29;20035;-87
2023/12/23 10:42:38;;;;;;;4.35;1.40;;;5.00;99.90;;;;;;4949610;29;20044;-86
2023/12/23 10:45:07;;;;;;;5.07;1.60;;;5.00;99.90;;;;;;4953883;29;20122;-87
2023/12/23 10:47:35;;;;;;;6.18;1.20;;;5.00;99.90;;;;;;4941427;29;20454;-86
2023/12/23 10:50:03;;;;;;;2.58;1.20;;;5.80;99.90;;;;;;4953912;29;20035;-87
2023/12/23 10:52:30;;;;;;;2.45;1.20;;;5.00;99.90;;;;;;4957281;29;20091;-87
2023/12/23 10:54:57;;;;;;;4.18;2.08;;;5.10;99.90;;;;;;4947229;29;20048;-87
2023/12/23 10:57:25;;;;;;;2.13;1.13;;;5.10;99.90;;;;;;4934952;29;20054;-87
2023/12/23 10:59:52;;;;;;;2.60;1.10;;;5.10;99.90;;;;;;4963808;29;20091;-87
2023/12/23 11:02:22;;;;;;;3.53;1.50;;;5.60;99.90;;;;;;4945069;29;20039;-87
2023/12/23 11:04:51;;;;;;;4.72;1.77;;;5.10;99.90;;;;;;4959651;29;20040;-87
2023/12/23 11:07:21;;;;;;;4.10;1.60;;;5.10;99.90;;;;;;4943742;29;20044;-88
2023/12/23 11:09:51;;;;;;;7.18;2.40;;;5.10;99.90;;;;;;4967935;29;20078;-87
2023/12/23 11:12:17;;;;;;;4.68;2.22;;;5.10;99.90;;;;;;4948206;29;20040;-87
2023/12/23 11:14:46;;;;;;;4.80;1.60;;;5.70;99.90;;;;;;4944974;29;20043;-86
2023/12/23 11:17:29;;;;;;;2.30;1.25;;;5.20;99.90;;;;;;4950128;29;20048;-87
2023/12/23 11:20:01;;;;;;;2.60;1.30;;;5.20;99.90;;;;;;4963286;29;20485;-87
2023/12/23 11:22:30;;;;;;;3.30;1.30;;;5.20;99.90;;;;;;4944891;29;20509;-86
2023/12/23 11:24:56;;;;;;;4.28;2.38;;;5.20;99.90;;;;;;4952936;29;20082;-86
2023/12/23 11:27:37;;;;;;;2.75;1.27;;;5.20;99.90;;;;;;4950314;29;20452;-86
2023/12/23 11:30:06;;;;;;;2.78;1.70;;;5.20;99.90;;;;;;4942529;29;20091;-86
2023/12/23 11:32:43;;;;;;;3.17;1.50;;;5.20;99.90;;;;;;4947964;29;20086;-86
2023/12/23 11:35:12;;;;;;;2.60;1.42;;;5.20;99.90;;;;;;4961346;29;20055;-87
2023/12/23 11:37:58;;;;;;;3.63;1.45;;;5.30;99.90;;;;;;4947644;29;20175;-87
2023/12/23 11:40:25;;;;;;;2.97;1.33;;;5.30;99.90;;;;;;4957043;29;20047;-85
2023/12/23 11:42:53;;;;;;;3.30;1.60;;;5.50;99.90;;;;;;4953581;29;20051;-87
2023/12/23 11:45:19;;;;;;;3.85;1.70;;;5.30;99.90;;;;;;4957095;29;20063;-87
2023/12/23 11:47:47;;;;;;;3.22;1.60;;;5.60;99.90;;;;;;4956938;29;20036;-86
2023/12/23 11:50:13;;;;;;;4.38;1.40;;;5.30;99.90;;;;;;4945921;29;20051;-86
2023/12/23 11:52:40;;;;;;;2.97;1.60;;;5.30;99.90;;;;;;4955445;29;20039;-85
2023/12/23 11:55:07;;;;;;;4.68;2.55;;;5.30;99.90;;;;;;4957967;29;20123;-85
2023/12/23 11:57:35;;;;;;;2.72;1.17;;;5.30;99.90;;;;;;4949940;29;20051;-86
2023/12/23 12:00:06;;;;;;;2.58;1.38;;;5.30;99.90;;;;;;4947797;29;20508;-85
2023/12/23 12:02:33;;;;;;;2.88;1.58;;;5.30;99.90;;;;;;4956287;29;20090;-85
2023/12/23 12:05:01;;;;;;;2.75;1.40;;;5.30;99.90;;;;;;4951928;29;20808;-85
2023/12/23 12:07:29;;;;;;;2.70;1.30;;;5.30;99.90;;;;;;4945716;29;20060;-85
2023/12/23 12:09:56;;;;;;;2.38;1.30;;;5.30;99.90;;;;;;4950668;29;20058;-85
2023/12/23 12:12:23;;;;;;;2.45;1.17;;;5.60;99.90;;;;;;4951238;29;20405;-85
2023/12/23 12:14:49;;;;;;;2.30;1.10;;;5.70;99.90;;;;;;4948773;29;20035;-85
2023/12/23 12:17:16;;;;;;;1.73;1.00;;;5.40;99.90;;;;;;4945647;29;20044;-85
2023/12/23 12:19:43;;;;;;;1.95;1.00;;;5.40;99.90;;;;;;4966453;29;20051;-85
2023/12/23 12:22:10;;;;;;;2.15;0.95;;;5.50;99.90;;;;;;4949449;29;20044;-86
2023/12/23 12:24:37;;;;;;;3.42;1.60;;;5.50;99.90;;;;;;4951238;29;20036;-85
2023/12/23 12:27:04;;;;;;;4.82;1.98;;;5.50;99.90;;;;;;4964856;29;20501;-85
2023/12/23 12:29:31;;;;;;;3.20;1.75;;;5.90;99.90;;;;;;4942581;29;20067;-85
2023/12/23 12:31:58;;;;;;;2.30;1.30;;;5.60;99.90;;;;;;4955612;29;20042;-85
2023/12/23 12:34:28;;;;;;;3.28;1.50;;;5.60;99.90;;;;;;4946780;29;20123;-85
2023/12/23 12:36:56;;;;;;;3.25;1.60;;;5.70;99.90;;;;;;4945468;29;20087;-85
2023/12/23 12:39:23;;;;;;;4.85;1.90;;;6.10;99.90;;;;;;4952091;29;20043;-85
2023/12/23 12:41:51;;;;;;;2.08;1.10;;;6.70;99.90;;;;;;4942920;29;20760;-85
2023/12/23 12:44:20;;;;;;;2.35;1.15;;;6.60;99.90;;;;;;4935670;29;20040;-85
2023/12/23 12:46:55;;;;;;;2.15;1.00;;;6.10;99.90;;;;;;4956613;29;20044;-85
2023/12/23 12:49:23;;;;;;;3.30;1.40;;;5.70;99.90;;;;;;4946341;29;20048;-85
2023/12/23 12:51:51;;;;;;;2.78;1.23;;;6.40;99.90;;;;;;4947033;29;20426;-85
2023/12/23 12:54:20;;;;;;;3.08;1.20;;;6.10;99.90;;;;;;4960964;29;20044;-85